Extreme weather reports worldwide

Lowest temperatures

Station
 
Location
 
Name
 
Wind
Knots
Gust
Knots
Vis
SM
Temp/Dew
C
Baro
inHg
METAR
 
CZRP 5 -38/-42 CZRP 050300Z AUTO 32005KT M39/M43 RMK AO1 SOG 69 6007 SLP156 T13861426
YIO CYIO Pond Inlet, CA Pond Inlet Airport 10 9 -35/-38 30.05 CYIO 050300Z AUTO 19010KT 9SM CLR M35/M38 A3005 RMK ICE INTMT SLP188
YZS CYZS Coral Harbour, CA Coral Harbour Airport 9 15 -34/-37 30.23 CYZS 050300Z 04009KT 15SM IC SKC M34/M37 A3023 RMK SLP252
YRB CYRB Resolute Bay, CA Resolute Bay Airport 3 20 -34/-38 29.93 CYRB 050300Z 36003KT 20SM IC BKN120 M34/M38 A2993 RMK AC5 SLP152
YBK CYBK Baker Lake, CA Baker Lake Airport 0 15 -34/-38 30.35 CYBK 050300Z 00000KT 15SM SKC M34/M38 A3035 RMK SLP282

Station
 
Location
 
Name
 
Wind
Knots
Gust
Knots
Vis
SM
Temp/Dew
C
Baro
inHg
METAR
 
CXAT 7 -34/-38 CXAT 050300Z AUTO 35007KT M34/M39 RMK AO1 SOG 02 1003 SLP181 T13441388
YFB CYFB Iqaluit, CA Iqaluit Airport 10 15 -33/-37 30.26 CYFB 050300Z 32010KT 15SM SKC M33/M37 A3026 RMK SLP256
YCY CYCY Clyde River, CA Clyde River Airport 0 9 -33/-37 29.99 CYCY 050300Z AUTO 00000KT 9SM CLR M33/M37 A2999 RMK SLP162
CXRB 4 -33/-37 CXRB 050300Z AUTO 36004KT M34/M38 RMK AO1 SLP148 T13351378 56009
YUB CYUB Tuktoyaktuk, CA Tuktoyaktuk Airport 6 15 -32/-36 30.14 CYUB 050300Z 36006KT 15SM FEW220 M32/M36 A3014 RMK CI2 SLP210
YRT CYRT Rankin Inlet, CA Rankin Inlet Airport 5 15 -32/-36 30.32 CYRT 050300Z 36005KT 15SM IC SCT250 M32/M36 A3032 RMK CI3 SLP278
CXTV 3 -32/-35 CXTV 050300Z AUTO 27003KT M32/M36 RMK AO1 SOG 78 1014 SLP205 T13231356
CWEU 3 15 -32/-36 29.89 CWEU 050300Z 07003KT 15SM FEW053 BKN170 M32/M36 A2989 RMK SC2AC4 LAST STFD OBS/NXT 050600Z SLP141
YVM CYVM Qikiqtarjuaq, CA Qikiqtarjuaq Airport 2 9 -31/-35 30.06 CYVM 050300Z AUTO 20002KT 9SM CLR M31/M35 A3006 RMK SLP182
CWND 5 -31/-34 CWND 050300Z AUTO 28005KT M32/M35 RMK AO1 SLP191 T13151347 52012
YHK CYHK Gjoa Haven, CA Gjoa Haven Airport 19 5 -30/-33 30.00 CYHK 050304Z AUTO 21019KT 5SM HZ OVC076 M30/M33 A3000 RMK SLP172
CXTN 2 -30/-34 CXTN 050300Z AUTO 03002KT M31/M34 RMK AO1 SOG 54 3009 SLP147 T13081341
PAAD Deadhorse, US Point Thomson Airstrip 14 -29/-32 30.09 PAAD 050315Z AUTO 07014KT 10SM CLR M29/M32 A3009 RMK AO2 T12901320
CWVH 6 48 -29/-32 30.00 CWVH 050300Z AUTO 31006G48KT 310V080 ////SM ////// M29/M32 A3000
UUK PAKU Kuparuk, US Ugnu-Kuparuk Airport 16 7 -29/-32 30.09 PAKU 050245Z 06016KT 7SM R06/P6000FT DRSN FEW110 M29/M32 A3009
CZEV 5 -28/-31 CZEV 050300Z AUTO 03005KT M28/M31 RMK AO1 SOG 77 1014 SLP203 T12821312
YZF CYZF Yellowknife, CA Yellowknife Airport 4 15 -28/-30 30.15 CYZF 050300Z 13004KT 15SM FEW240 M28/M30 A3015 RMK CI1 CI TR SLP246
YTE CYTE Cape Dorset, CA Cape Dorset Airport 2 9 -28/-31 30.22 CYTE 050300Z AUTO 26002KT 9SM CLR M28/M31 A3022 RMK SLP244
YEV CYEV Inuvik, CA Inuvik Mike Zubko Airport 4 15 -28/-31 30.10 CYEV 050300Z 11004KT 040V120 15SM IC BKN085 BKN250 M28/M31 A3010 RMK AS5CI2 SLP205
CXHD 5 -28/-32 CXHD 050300Z AUTO 22005KT M29/M32 RMK AO1 T12891321
CWJC Ennadai, CA Ennadai Lake Airport 11 -28/-32 CWJC 050300Z AUTO 05011KT M29/M32 RMK AO1 SOG 06 2004 SLP275 T12871321
SCC PASC Deadhorse, US Deadhorse Airport 16 9 -28/-32 30.08 PASC 050253Z AUTO 06016KT 9SM CLR M28/M33 A3008 RMK AO2 SLP190 T12831328 53003 TSNO PNO
NUI PAQT Nuiqsut, US Nuiqsut Airport 14 7 -28/-31 30.09 PAQT 050253Z AUTO 05014KT 7SM CLR M28/M31 A3009 RMK AO2 SLP191 T12831311 53002 TSNO PNO
DQH PALP Nuiqsut, US Alpine Airstrip 10 7 -28/-32 30.11 PALP 050245Z 05010KT 7SM SKC M28/M32 A3011 RMK LAST
YKY CYKY Kindersley, CA Kindersley Airport 6 15 -27/-30 29.97 CYKY 050300Z 26006KT 15SM SKC M27/M30 A2997 RMK SLP232
CXSP 2 -27/-30 CXSP 050300Z AUTO 25002KT M27/M30 RMK AO1 T12701303
ATK PATQ Atqasuk, US Atqasuk Edward Burnell Sr Memorial Airport 22 0.75 -27/-30 30.06 PATQ 050256Z AUTO 07022KT 3/4SM HZ CLR M28/M31 A3006 RMK AO2 PK WND 07027/0229 SLP185 60000 T12781306 55000 FZRANO TSNO
YXE CYXE Saskatoon, CA Saskatoon John G. Diefenbaker International Airport 10 15 -26/-30 29.99 CYXE 050300Z 23010KT 15SM SKC M26/M30 A2999 RMK SLP218
YPX CYPX Puvirnituq, CA Puvirnituq Airport 17 9 -26/-30 30.12 CYPX 050300Z AUTO 06017KT 9SM M26/M30 A3012 RMK CLD MISG SLP207
YLL CYLL Lloydminster, CA Lloydminster Airport 9 15 -26/-30 29.91 CYLL 050300Z 26009KT 15SM FEW280 M26/M30 A2991 RMK CI2 SLP211
CWIJ 14 -26/-29 CWIJ 050300Z AUTO 19014KT M26/M29 RMK AO1 SOG 65 8025 PK WND 19018/0240 SLP193 T12611290
CWGY 7 -26/-29 CWGY 050300Z AUTO 25007KT M26/M30 RMK AO1 SOG 11 1016 SLP227 T12601296
CPIN 18 25 -26/-28 29.91 CPIN 050300Z AUTO 30018G25KT ////SM ////// M26/M28 A2991
YKS UEEE Yakutsk, RU Yakutsk Airport 4 -25/-28 29.91 UEEE 050300Z 02002MPS CAVOK M25/M28 Q1013 R23/490155 NOSIG RMK QFE751
YQW CYQW North Battleford, CA North Battleford Airport 7 9 -25/-29 30.00 CYQW 050300Z AUTO 26007KT 9SM CLR M25/M29 A3000 RMK SLP222
YHY CYHY Hay River, CA Hay River / Merlyn Carter Airport 4 15 -25/-30 30.16 CYHY 050300Z 12004KT 15SM FEW210 FEW230 BKN250 M25/M30 A3016 RMK CI1CI1CI4 SLP243
YEK CYEK Arviat, CA Arviat Airport 14 9 -25/-28 30.27 CYEK 050300Z AUTO 02014KT 9SM CLR M25/M28 A3027 RMK SLP255
CXVM 6 -25/-29 CXVM 050300Z AUTO 26006KT M26/M30 RMK AO1 T12571297
CXOY 7 -25/-28 CXOY 050300Z AUTO 26007KT M25/M28 RMK AO1 T12531281
CXBA 7 -25/-28 CXBA 050300Z AUTO 26007KT M25/M29 RMK AO1 T12501288
CXAJ 4 -25/-28 CXAJ 050300Z AUTO 26004KT M25/M29 RMK AO1 T12531286
CXAG 4 -25/-28 CXAG 050300Z AUTO 29004KT M25/M28 RMK AO1 T12501282
CXAF 2 -25/-29 CXAF 050300Z AUTO 27002KT M25/M30 RMK AO1 T12541296
CWVI 4 -25/-29 CWVI 050300Z AUTO 24004KT M26/M30 RMK AO1 SOG 05 2010 SLP227 T12561296
CWRJ 5 -25/-29 CWRJ 050300Z AUTO 28005KT M26/M30 RMK AO1 SOG 12 1019 SLP225 T12561296